Time;durP1;ratioP1;P1;durP2;ratioP2;P2;SDS_P1;SDS_P2;PMS_P1;PMS_P2;Temp;Humidity;BMP_temperature;BMP_pressure;BME280_temperature;BME280_humidity;BME280_pressure;Samples;Min_cycle;Max_cycle;Signal;HPM_P1;HPM_P2
2023/04/11 00:01:00;;;;;;;7.70;4.47;;;;;;;18.36;45.85;96119.16;5034661;28;20473;-48
2023/04/11 00:03:28;;;;;;;8.02;4.80;;;;;;;18.37;45.97;96110.13;5028050;28;20552;-48
2023/04/11 00:05:57;;;;;;;8.20;4.88;;;;;;;18.17;46.37;96110.06;5026881;28;20081;-47
2023/04/11 00:08:27;;;;;;;10.63;4.97;;;;;;;18.36;46.67;96092.47;5025326;28;20077;-44
2023/04/11 00:10:55;;;;;;;8.15;4.68;;;;;;;18.42;46.49;96099.69;5028059;28;20077;-47
2023/04/11 00:13:25;;;;;;;7.75;4.43;;;;;;;18.38;46.46;96103.78;5028730;28;20668;-45
2023/04/11 00:15:54;;;;;;;7.55;4.55;;;;;;;18.43;46.65;96096.78;5020898;28;20077;-43
2023/04/11 00:18:24;;;;;;;7.15;4.25;;;;;;;18.60;46.21;96097.22;5027270;28;20081;-47
2023/04/11 00:20:52;;;;;;;7.00;3.90;;;;;;;18.59;46.35;96082.25;5023030;28;20478;-44
2023/04/11 00:23:20;;;;;;;5.43;3.55;;;;;;;18.59;46.46;96081.41;5032685;28;20089;-49
2023/04/11 00:25:50;;;;;;;6.97;3.95;;;;;;;18.61;46.20;96077.50;5025471;28;20073;-45
2023/04/11 00:28:18;;;;;;;7.93;4.38;;;;;;;18.71;45.50;96069.09;5025251;28;20112;-44
2023/04/11 00:30:47;;;;;;;7.25;3.78;;;;;;;18.32;46.17;96075.22;5025016;28;20100;-44
2023/04/11 00:33:15;;;;;;;6.53;3.70;;;;;;;18.77;45.65;96060.28;5027238;28;20172;-46
2023/04/11 00:35:44;;;;;;;6.90;3.97;;;;;;;18.79;45.27;96052.91;5020693;28;20089;-46
2023/04/11 00:38:12;;;;;;;6.15;3.58;;;;;;;18.79;45.33;96046.72;5030879;28;20077;-49
2023/04/11 00:40:40;;;;;;;6.40;3.97;;;;;;;18.81;45.61;96045.47;5026013;28;20081;-45
2023/04/11 00:43:10;;;;;;;7.22;3.90;;;;;;;19.03;44.84;96037.25;5030386;28;20088;-45
2023/04/11 00:45:38;;;;;;;7.30;3.67;;;;;;;18.05;46.81;96048.47;5025793;28;20529;-46
2023/04/11 00:48:07;;;;;;;6.22;3.58;;;;;;;18.56;46.03;96036.44;5024693;28;20744;-46
2023/04/11 00:50:38;;;;;;;5.88;3.35;;;;;;;18.54;46.25;96033.94;5029414;28;20454;-51
2023/04/11 00:53:06;;;;;;;6.07;3.70;;;;;;;18.50;47.14;96033.53;5025700;28;20085;-44
2023/04/11 00:55:35;;;;;;;6.25;4.22;;;;;;;18.79;45.80;96020.00;5024794;28;20112;-47
2023/04/11 00:58:04;;;;;;;7.15;3.55;;;;;;;18.95;45.29;96019.56;5025580;28;20081;-49
2023/04/11 01:00:34;;;;;;;6.13;3.72;;;;;;;18.45;46.52;96013.84;5025100;28;20089;-45
2023/04/11 01:03:02;;;;;;;4.93;3.15;;;;;;;18.90;45.29;96009.53;5022226;28;20552;-48
2023/04/11 01:05:32;;;;;;;5.88;3.22;;;;;;;19.05;44.87;96017.28;5035524;28;20077;-48
2023/04/11 01:08:00;;;;;;;5.47;3.35;;;;;;;19.02;44.79;96022.25;5024532;28;20080;-47
2023/04/11 01:10:30;;;;;;;7.32;3.20;;;;;;;19.30;43.95;96035.34;5029362;28;20088;-45
2023/04/11 01:12:59;;;;;;;5.97;3.42;;;;;;;19.32;43.83;96033.28;5027675;28;20087;-47
2023/04/11 01:15:28;;;;;;;4.88;3.17;;;;;;;19.28;44.17;96035.56;5028169;28;20469;-48
2023/04/11 01:18:00;;;;;;;5.22;3.20;;;;;;;19.27;44.45;96043.78;5023560;28;20089;-45
2023/04/11 01:20:30;;;;;;;6.18;3.30;;;;;;;19.40;44.26;96041.88;5024040;28;20077;-49
2023/04/11 01:23:00;;;;;;;5.00;2.97;;;;;;;19.66;43.62;96034.84;5024114;28;20088;-46
2023/04/11 01:25:29;;;;;;;5.85;3.50;;;;;;;19.68;43.94;96035.44;5024531;28;20076;-45
2023/04/11 01:27:58;;;;;;;5.00;3.17;;;;;;;19.94;43.47;96028.34;5029350;28;20088;-46
2023/04/11 01:30:26;;;;;;;5.75;3.35;;;;;;;20.01;42.94;96021.91;5017890;28;20085;-45
2023/04/11 01:32:54;;;;;;;5.63;3.45;;;;;;;20.11;43.25;96016.09;5024964;28;20073;-46
2023/04/11 01:35:23;;;;;;;6.50;3.30;;;;;;;20.20;43.78;96001.44;5040505;28;20076;-45
2023/04/11 01:37:51;;;;;;;5.60;3.30;;;;;;;20.25;43.83;96008.81;5035887;28;20085;-47
2023/04/11 01:40:21;;;;;;;6.60;3.50;;;;;;;20.19;44.93;95993.59;5036947;28;20087;-45
2023/04/11 01:42:52;;;;;;;4.90;3.03;;;;;;;18.89;47.06;95989.19;5031396;28;20085;-45
2023/04/11 01:45:20;;;;;;;4.60;3.00;;;;;;;19.02;47.35;95987.50;5036868;28;20510;-45
2023/04/11 01:47:48;;;;;;;5.43;3.13;;;;;;;19.45;47.96;95998.50;5034272;28;20095;-45
2023/04/11 01:50:18;;;;;;;6.80;3.65;;;;;;;19.48;47.50;95992.72;5035210;28;20085;-45
2023/04/11 01:52:46;;;;;;;5.28;2.88;;;;;;;19.95;46.49;95997.84;5028515;28;20100;-44
2023/04/11 01:55:14;;;;;;;5.20;2.95;;;;;;;20.02;45.78;95998.66;5034680;28;20085;-47
2023/04/11 01:57:43;;;;;;;5.47;2.90;;;;;;;20.14;45.23;96011.13;5034093;28;20077;-48
2023/04/11 02:00:14;;;;;;;7.70;3.55;;;;;;;20.28;45.28;96008.38;5027802;28;20473;-43
2023/04/11 02:02:42;;;;;;;4.07;2.55;;;;;;;20.27;44.91;96001.38;5035973;28;20089;-45
2023/04/11 02:05:10;;;;;;;5.32;2.95;;;;;;;20.21;44.72;95988.84;5031390;28;20085;-46
2023/04/11 02:07:39;;;;;;;3.63;2.53;;;;;;;20.23;45.06;95965.34;5036155;28;20159;-44
2023/04/11 02:10:08;;;;;;;5.07;2.72;;;;;;;19.53;45.42;95959.97;5030331;28;20084;-47
2023/04/11 02:12:36;;;;;;;4.10;2.83;;;;;;;20.14;44.24;95949.56;5042766;28;20088;-48
2023/04/11 02:15:06;;;;;;;3.88;2.50;;;;;;;19.97;44.32;95956.47;5037357;28;20045;-46
2023/04/11 02:17:36;;;;;;;3.90;2.35;;;;;;;20.48;43.12;95950.13;5035999;28;20179;-45
2023/04/11 02:20:08;;;;;;;4.38;2.47;;;;;;;20.55;42.88;95939.38;5027717;28;20053;-47
2023/04/11 02:22:37;;;;;;;;;;;;;;;20.87;42.65;95932.06;5035510;28;20228;-46
2023/04/11 02:25:08;;;;;;;2.92;2.28;;;;;;;20.83;42.56;95928.19;5028647;28;19990;-45
2023/04/11 02:27:38;;;;;;;4.15;2.60;;;;;;;21.08;42.31;95922.75;5036197;28;20042;-45
2023/04/11 02:30:07;;;;;;;4.32;2.60;;;;;;;21.02;42.18;95927.13;5033044;28;20069;-47
2023/04/11 02:32:37;;;;;;;3.70;2.53;;;;;;;21.17;41.57;95921.41;5032524;28;20085;-44
2023/04/11 02:35:07;;;;;;;4.65;2.50;;;;;;;21.27;41.22;95912.84;5038555;28;20041;-46
2023/04/11 02:37:36;;;;;;;5.22;2.30;;;;;;;21.36;41.20;95918.75;5035050;28;20033;-47
2023/04/11 02:40:05;;;;;;;4.40;2.55;;;;;;;21.29;41.03;95910.75;5040349;28;20123;-46
2023/04/11 02:42:33;;;;;;;3.60;2.22;;;;;;;21.03;41.70;95910.03;5034871;28;20077;-43
2023/04/11 02:45:02;;;;;;;4.70;2.50;;;;;;;21.13;41.55;95901.47;5028315;28;20057;-47
2023/04/11 02:47:31;;;;;;;3.70;2.05;;;;;;;21.13;41.35;95898.78;5028794;28;20048;-48
2023/04/11 02:50:00;;;;;;;3.50;2.33;;;;;;;21.28;41.46;95901.88;5032938;28;20096;-47
2023/04/11 02:52:29;;;;;;;4.07;2.67;;;;;;;21.35;41.22;95907.19;5035939;28;20539;-45
2023/04/11 02:54:57;;;;;;;3.47;2.17;;;;;;;21.47;41.07;95899.19;5041197;28;20537;-47
2023/04/11 02:57:25;;;;;;;4.30;2.15;;;;;;;21.54;40.64;95898.09;5033609;28;20044;-45
2023/04/11 02:59:54;;;;;;;8.85;2.50;;;;;;;21.48;41.27;95895.47;5036733;28;20048;-46
2023/04/11 03:02:23;;;;;;;4.22;2.45;;;;;;;21.52;40.63;95889.44;5038043;28;20061;-46
2023/04/11 03:04:51;;;;;;;3.67;2.17;;;;;;;21.74;40.38;95876.31;5037750;28;20073;-45
2023/04/11 03:07:21;;;;;;;9.63;2.10;;;;;;;21.71;40.08;95876.78;5030304;28;20091;-46
2023/04/11 03:09:49;;;;;;;3.23;2.17;;;;;;;21.78;39.75;95863.25;5028882;28;20075;-50
2023/04/11 03:12:18;;;;;;;2.92;1.80;;;;;;;21.85;39.40;95863.16;5031450;28;20085;-45
2023/04/11 03:14:47;;;;;;;4.07;1.92;;;;;;;21.50;39.49;95869.22;5028288;28;20480;-48
2023/04/11 03:17:15;;;;;;;3.55;2.00;;;;;;;21.92;39.44;95869.22;5027927;28;20549;-43
2023/04/11 03:19:43;;;;;;;4.53;2.10;;;;;;;21.88;40.00;95868.06;5028316;28;20103;-48
2023/04/11 03:22:12;;;;;;;5.15;2.00;;;;;;;22.00;39.96;95861.66;5026355;28;20081;-49
2023/04/11 03:24:41;;;;;;;3.85;1.70;;;;;;;22.14;39.53;95872.19;5019701;28;20088;-47
2023/04/11 03:27:09;;;;;;;4.28;1.80;;;;;;;22.19;39.65;95872.34;5021750;28;20092;-44
2023/04/11 03:29:38;;;;;;;3.92;2.08;;;;;;;22.07;41.33;95868.81;5023981;28;20089;-49
2023/04/11 03:32:06;;;;;;;3.53;1.98;;;;;;;22.05;41.01;95872.53;5030174;28;20462;-49
2023/04/11 03:34:35;;;;;;;4.32;2.10;;;;;;;22.01;41.08;95871.34;5024141;28;20081;-49
2023/04/11 03:37:03;;;;;;;3.22;1.67;;;;;;;21.89;41.62;95888.50;5029076;28;20076;-48
2023/04/11 03:39:31;;;;;;;3.22;1.95;;;;;;;21.24;41.86;95873.88;5036835;28;20177;-49
2023/04/11 03:42:01;;;;;;;3.65;2.22;;;;;;;21.58;42.29;95894.94;5030274;28;20087;-48
2023/04/11 03:44:29;;;;;;;3.97;2.10;;;;;;;21.47;42.02;95891.16;5032137;28;20096;-47
2023/04/11 03:46:58;;;;;;;3.28;2.03;;;;;;;21.77;42.05;95869.66;5026586;28;20516;-46
2023/04/11 03:49:29;;;;;;;3.30;2.10;;;;;;;21.80;41.92;95864.66;5034673;28;20549;-45
2023/04/11 03:51:57;;;;;;;4.57;2.22;;;;;;;21.87;41.85;95863.75;5033845;28;20087;-50
2023/04/11 03:54:25;;;;;;;2.30;1.67;;;;;;;21.82;40.38;95851.03;5029670;28;20904;-43
2023/04/11 03:56:54;;;;;;;3.42;1.50;;;;;;;21.84;39.89;95858.84;5035452;28;20088;-49
2023/04/11 03:59:24;;;;;;;2.85;1.60;;;;;;;21.80;39.91;95850.44;5024782;28;20088;-50
2023/04/11 04:01:52;;;;;;;2.83;1.90;;;;;;;21.84;40.96;95845.41;5018323;28;20092;-45
2023/04/11 04:04:21;;;;;;;4.97;1.90;;;;;;;21.76;41.32;95841.19;5025419;28;20100;-46
2023/04/11 04:06:49;;;;;;;3.40;2.22;;;;;;;21.93;42.07;95833.31;5032716;28;20084;-48
2023/04/11 04:09:17;;;;;;;3.17;1.85;;;;;;;21.93;41.27;95833.31;5024751;28;20081;-46
2023/04/11 04:11:45;;;;;;;4.22;1.70;;;;;;;22.04;39.44;95841.34;5026387;28;20482;-46
2023/04/11 04:14:14;;;;;;;3.33;1.85;;;;;;;22.05;39.60;95829.56;5030086;28;20084;-46
2023/04/11 04:16:43;;;;;;;2.75;1.70;;;;;;;21.32;41.23;95827.97;5029303;28;20081;-48
2023/04/11 04:19:12;;;;;;;2.72;1.80;;;;;;;21.81;41.61;95830.59;5035009;28;20089;-45
2023/04/11 04:21:42;;;;;;;2.63;1.70;;;;;;;22.01;41.02;95830.25;5028766;28;20081;-45
2023/04/11 04:24:11;;;;;;;3.87;2.10;;;;;;;22.02;41.28;95818.47;5029928;28;20077;-46
2023/04/11 04:26:39;;;;;;;2.88;1.90;;;;;;;21.99;41.59;95821.66;5024746;28;20522;-47
2023/04/11 04:29:08;;;;;;;3.03;2.00;;;;;;;22.01;42.07;95817.66;5027357;28;20490;-47
2023/04/11 04:31:37;;;;;;;5.30;2.10;;;;;;;22.07;42.23;95821.28;5021778;28;20179;-48
2023/04/11 04:34:08;;;;;;;2.17;1.55;;;;;;;22.05;41.60;95837.63;5026645;28;20096;-47
2023/04/11 04:36:45;;;;;;;;;;;;;;;22.09;41.06;95829.09;5025084;28;20092;-48
2023/04/11 04:39:16;;;;;;;4.03;1.70;;;;;;;22.10;39.78;95836.13;5024947;28;19967;-43
2023/04/11 04:41:47;;;;;;;6.38;2.00;;;;;;;22.12;40.05;95844.75;5031102;28;20103;-44
2023/04/11 04:44:16;;;;;;;;;;;;;;;21.91;39.91;95844.25;5032264;28;20076;-47
2023/04/11 04:46:44;;;;;;;3.05;1.67;;;;;;;21.89;40.59;95845.56;5028567;28;19960;-45
2023/04/11 04:49:14;;;;;;;2.42;1.30;;;;;;;21.97;39.44;95847.91;5027454;28;20532;-47
2023/04/11 04:51:42;;;;;;;1.80;1.30;;;;;;;21.74;39.47;95862.06;5036560;28;20547;-44
2023/04/11 04:54:11;;;;;;;1.63;1.20;;;;;;;21.43;38.77;95861.28;5036319;28;20552;-47
2023/04/11 04:56:40;;;;;;;2.05;1.00;;;;;;;21.34;39.98;95857.28;5038528;28;20076;-46
2023/04/11 04:59:13;;;;;;;3.67;1.23;;;;;;;20.90;40.56;95855.75;5021814;28;20636;-46
2023/04/11 05:01:41;;;;;;;3.08;1.25;;;;;;;21.16;39.36;95847.34;5022932;28;20096;-47
2023/04/11 05:04:10;;;;;;;1.95;0.77;;;;;;;20.14;40.03;95853.19;5029033;28;20107;-46
2023/04/11 05:06:40;;;;;;;1.50;1.00;;;;;;;20.54;39.94;95858.22;5017977;28;20077;-44
2023/04/11 05:09:08;;;;;;;3.65;1.50;;;;;;;20.68;39.50;95848.16;5023444;28;20466;-44
2023/04/11 05:11:37;;;;;;;2.65;1.15;;;;;;;20.65;39.57;95845.94;5023328;28;20093;-48
2023/04/11 05:14:05;;;;;;;2.30;1.20;;;;;;;20.45;40.87;95856.00;5024187;28;20084;-46
2023/04/11 05:16:33;;;;;;;4.70;1.20;;;;;;;20.36;40.88;95842.06;5018657;28;20088;-44
2023/04/11 05:19:02;;;;;;;3.03;1.00;;;;;;;20.22;41.49;95848.59;5022289;28;20505;-48
2023/04/11 05:21:30;;;;;;;2.25;0.95;;;;;;;20.17;41.67;95845.75;5023841;28;20463;-48
2023/04/11 05:24:00;;;;;;;1.67;1.10;;;;;;;20.30;41.84;95846.47;5025933;28;20083;-45
2023/04/11 05:26:28;;;;;;;2.17;1.15;;;;;;;20.15;42.48;95862.84;5021429;28;20136;-47
2023/04/11 05:28:57;;;;;;;2.72;1.20;;;;;;;19.79;43.81;95865.41;5037653;28;20076;-47
2023/04/11 05:31:26;;;;;;;1.45;0.82;;;;;;;19.48;45.46;95872.38;5032179;28;20095;-45
2023/04/11 05:33:54;;;;;;;2.10;0.98;;;;;;;19.64;46.53;95863.84;5038139;28;20537;-49
2023/04/11 05:36:23;;;;;;;2.25;1.00;;;;;;;19.55;47.68;95875.00;5032178;28;20069;-49
2023/04/11 05:38:51;;;;;;;3.10;1.25;;;;;;;19.50;48.01;95878.31;5028722;28;20455;-44
2023/04/11 05:41:21;;;;;;;1.60;1.25;;;;;;;19.79;48.79;95876.94;5033427;28;20080;-44
2023/04/11 05:43:49;;;;;;;2.23;1.20;;;;;;;19.38;49.62;95882.72;5032824;28;20081;-47
2023/04/11 05:46:17;;;;;;;2.47;1.02;;;;;;;19.64;50.22;95884.44;5035341;28;20085;-45
2023/04/11 05:48:46;;;;;;;2.42;1.67;;;;;;;19.17;51.00;95884.66;5034470;28;20077;-45
2023/04/11 05:51:14;;;;;;;2.22;1.10;;;;;;;19.27;52.67;95892.25;5036631;28;20072;-48
2023/04/11 05:53:43;;;;;;;2.72;1.17;;;;;;;19.62;53.28;95878.47;5030022;28;20084;-47
2023/04/11 05:56:12;;;;;;;2.50;1.67;;;;;;;19.76;53.61;95882.72;5036954;28;20540;-48
2023/04/11 05:58:42;;;;;;;2.35;1.10;;;;;;;19.50;54.98;95883.66;5029861;28;20100;-44
2023/04/11 06:01:13;;;;;;;;;;;;;;;19.44;57.29;95889.84;5035309;28;20077;-47
2023/04/11 06:03:41;;;;;;;1.17;0.93;;;;;;;19.34;59.85;95890.34;5034514;28;19956;-45
2023/04/11 06:06:10;;;;;;;1.20;0.80;;;;;;;18.85;63.68;95890.94;5035178;28;20058;-44
2023/04/11 06:08:38;;;;;;;1.90;1.25;;;;;;;18.96;65.65;95895.66;5033205;28;20048;-45
2023/04/11 06:11:07;;;;;;;1.40;1.08;;;;;;;18.74;68.01;95897.75;5027230;28;20081;-45
2023/04/11 06:13:35;;;;;;;2.55;1.20;;;;;;;18.17;73.14;95888.56;5035189;28;20076;-45
2023/04/11 06:16:05;;;;;;;1.48;1.00;;;;;;;18.91;75.74;95898.94;5036410;28;20084;-43
2023/04/11 06:18:34;;;;;;;;;;;;;;;18.77;74.70;95900.00;5039532;28;20084;-48
2023/04/11 06:21:02;;;;;;;4.28;1.52;;;;;;;18.64;82.51;95897.34;5034342;28;19960;-51
2023/04/11 06:23:30;;;;;;;2.45;1.20;;;;;;;18.11;93.46;95874.22;5037611;28;20555;-49
2023/04/11 06:25:59;;;;;;;2.80;1.20;;;;;;;18.19;98.75;95898.00;5030722;28;20489;-45
2023/04/11 06:28:27;;;;;;;1.40;1.05;;;;;;;18.49;95.21;95909.06;5032041;28;20085;-45
2023/04/11 06:30:55;;;;;;;1.08;0.80;;;;;;;18.51;97.77;95908.84;5035191;28;20087;-45
2023/04/11 06:33:25;;;;;;;2.17;1.30;;;;;;;18.19;100.00;95931.88;5031550;28;20307;-43
2023/04/11 06:35:53;;;;;;;2.10;0.98;;;;;;;18.18;100.00;95916.91;5036463;28;20198;-45
2023/04/11 06:38:21;;;;;;;3.65;1.50;;;;;;;18.73;100.00;95925.50;5042084;28;20088;-47
2023/04/11 06:40:50;;;;;;;2.03;1.27;;;;;;;18.70;94.21;95920.53;5040048;28;20103;-46
2023/04/11 06:43:18;;;;;;;2.72;1.48;;;;;;;18.50;99.26;95932.06;5044156;28;20091;-43
2023/04/11 06:45:48;;;;;;;2.05;1.20;;;;;;;19.16;90.85;95936.47;5042543;28;20084;-46
2023/04/11 06:48:16;;;;;;;2.53;1.30;;;;;;;18.55;99.31;95936.81;5036400;28;20604;-45
2023/04/11 06:50:48;;;;;;;3.47;1.85;;;;;;;18.67;100.00;95935.13;5041713;28;20083;-44
2023/04/11 06:53:16;;;;;;;3.05;1.40;;;;;;;18.36;100.00;95929.63;5034082;28;20081;-42
2023/04/11 06:55:48;;;;;;;2.25;1.70;;;;;;;19.14;100.00;95924.38;5033325;28;20085;-46
2023/04/11 06:58:16;;;;;;;3.60;2.10;;;;;;;19.89;98.17;95924.63;5036177;28;20076;-44
2023/04/11 07:00:45;;;;;;;4.38;1.95;;;;;;;19.64;96.11;95925.38;5033337;28;20077;-43
2023/04/11 07:03:13;;;;;;;4.82;1.88;;;;;;;19.44;100.00;95921.94;5043268;28;20087;-43
2023/04/11 07:05:41;;;;;;;3.92;2.22;;;;;;;19.76;97.02;95916.69;5036394;28;20084;-48
2023/04/11 07:08:11;;;;;;;2.92;1.85;;;;;;;19.68;97.47;95928.44;5032755;28;20482;-46
2023/04/11 07:10:40;;;;;;;4.13;2.38;;;;;;;20.04;93.27;95927.00;5030523;28;20469;-46
2023/04/11 07:13:08;;;;;;;4.40;1.77;;;;;;;19.67;96.22;95932.16;5040290;28;20085;-49
2023/04/11 07:15:36;;;;;;;6.13;2.30;;;;;;;19.92;98.12;95937.56;5025432;28;20081;-48
2023/04/11 07:18:04;;;;;;;4.38;2.55;;;;;;;19.80;98.04;95950.81;5035317;28;20100;-45
2023/04/11 07:20:33;;;;;;;5.68;2.33;;;;;;;20.29;94.39;95943.88;5036868;28;20073;-44
2023/04/11 07:23:02;;;;;;;6.25;2.40;;;;;;;20.49;90.68;95953.63;5030107;28;20494;-44
2023/04/11 07:25:32;;;;;;;3.25;2.38;;;;;;;20.48;90.77;95938.59;5033615;28;20103;-47
2023/04/11 07:28:01;;;;;;;2.42;1.52;;;;;;;20.44;89.92;95956.97;5043677;28;20080;-47
2023/04/11 07:30:29;;;;;;;3.17;1.65;;;;;;;19.87;100.00;95962.28;5041426;28;20077;-47
2023/04/11 07:32:57;;;;;;;3.10;1.77;;;;;;;19.09;100.00;95975.75;5037325;28;20081;-47
2023/04/11 07:36:00;;;;;;;3.90;1.58;;;;;;;18.63;100.00;95979.31;5037043;28;20107;-42
2023/04/11 07:38:28;;;;;;;1.70;1.10;;;;;;;17.78;100.00;95981.69;5029005;28;20085;-46
2023/04/11 07:41:00;;;;;;;0.70;0.70;;;;;;;17.41;100.00;95998.13;5036645;28;20088;-46
2023/04/11 07:43:28;;;;;;;3.42;0.93;;;;;;;17.34;100.00;96000.78;5032494;28;20085;-48
2023/04/11 07:45:58;;;;;;;2.50;0.70;;;;;;;16.58;100.00;95996.19;5025925;28;20085;-45
2023/04/11 07:48:27;;;;;;;1.75;0.70;;;;;;;16.59;100.00;96005.84;5035301;28;20085;-46
2023/04/11 07:50:56;;;;;;;3.97;0.80;;;;;;;17.18;100.00;96012.59;5040935;28;20549;-47
2023/04/11 07:53:24;;;;;;;1.00;0.60;;;;;;;17.31;100.00;96006.53;5038176;28;20092;-44
2023/04/11 07:55:53;;;;;;;1.05;0.75;;;;;;;16.89;100.00;96004.84;5036005;28;20461;-45
2023/04/11 07:58:22;;;;;;;4.47;0.80;;;;;;;17.09;100.00;96022.59;5039654;28;20121;-46
2023/04/11 08:00:51;;;;;;;1.67;0.67;;;;;;;17.79;100.00;96015.34;5037386;28;20471;-46
2023/04/11 08:03:21;;;;;;;4.03;0.70;;;;;;;17.47;100.00;96000.84;5040898;28;20526;-44
2023/04/11 08:05:51;;;;;;;0.43;0.43;;;;;;;17.51;100.00;96015.41;5030658;28;20081;-45
2023/04/11 08:08:19;;;;;;;0.60;0.60;;;;;;;17.68;100.00;96017.72;5033817;28;20532;-45
2023/04/11 08:10:48;;;;;;;0.47;0.40;;;;;;;17.04;100.00;96010.88;5039014;28;20077;-45
2023/04/11 08:13:19;;;;;;;0.93;0.45;;;;;;;17.37;100.00;96016.38;5035950;28;20096;-47
2023/04/11 08:15:48;;;;;;;0.47;0.40;;;;;;;17.80;100.00;96021.50;5037726;28;20089;-45
2023/04/11 08:18:20;;;;;;;1.03;0.40;;;;;;;17.47;100.00;96032.00;5030289;28;20095;-47
2023/04/11 08:20:48;;;;;;;0.30;0.30;;;;;;;17.24;100.00;96035.81;5042544;28;20532;-49
2023/04/11 08:23:18;;;;;;;1.55;0.60;;;;;;;17.87;100.00;96027.69;5043692;28;20080;-46
2023/04/11 08:25:46;;;;;;;0.55;0.35;;;;;;;18.35;100.00;96035.59;5035937;28;20080;-43
2023/04/11 08:28:15;;;;;;;0.65;0.30;;;;;;;17.72;100.00;96041.16;5030241;28;20652;-49
2023/04/11 08:30:43;;;;;;;0.57;0.47;;;;;;;18.22;100.00;96051.56;5040615;28;20493;-46
2023/04/11 08:33:14;;;;;;;0.30;0.30;;;;;;;18.60;95.79;96040.31;5034879;28;20555;-48
2023/04/11 08:35:42;;;;;;;0.25;0.25;;;;;;;18.70;95.68;96046.91;5037882;28;20084;-44
2023/04/11 08:38:10;;;;;;;1.02;0.40;;;;;;;18.05;98.98;96047.63;5035177;28;20103;-49
2023/04/11 08:40:38;;;;;;;1.33;0.68;;;;;;;18.26;89.12;96031.47;5044246;28;20077;-45
2023/04/11 08:43:10;;;;;;;0.50;0.40;;;;;;;18.02;86.28;96027.50;5039769;28;20099;-48
2023/04/11 08:45:39;;;;;;;4.45;0.85;;;;;;;18.30;82.84;96031.88;5038757;28;20088;-46
2023/04/11 08:48:10;;;;;;;2.25;0.50;;;;;;;17.77;76.84;96033.41;5038384;28;20083;-46
2023/04/11 08:50:41;;;;;;;0.98;0.38;;;;;;;18.13;79.11;96066.94;5036740;28;20076;-50
2023/04/11 08:53:09;;;;;;;0.63;0.35;;;;;;;17.97;72.60;96060.13;5044484;28;20088;-48
2023/04/11 08:55:44;;;;;;;0.20;0.20;;;;;;;17.73;74.23;96066.78;5035925;28;20532;-49
2023/04/11 08:58:13;;;;;;;0.50;0.30;;;;;;;17.19;71.78;96058.72;5035477;28;20084;-47
2023/04/11 09:00:41;;;;;;;1.40;0.30;;;;;;;17.71;74.58;96076.81;5035914;28;20432;-49
2023/04/11 09:03:10;;;;;;;2.55;0.25;;;;;;;18.39;66.94;96071.53;5029007;28;20085;-49
2023/04/11 09:05:43;;;;;;;1.75;0.30;;;;;;;18.52;65.72;96057.38;5032906;28;20564;-47
2023/04/11 09:08:13;;;;;;;0.28;0.22;;;;;;;18.21;65.51;96069.44;5031169;28;20087;-44
2023/04/11 09:10:43;;;;;;;0.55;0.20;;;;;;;18.54;63.79;96071.31;5033545;28;20104;-44
2023/04/11 09:13:19;;;;;;;;;;;;;;;18.86;59.48;96058.25;5034195;28;20085;-46
2023/04/11 09:15:47;;;;;;;0.90;0.40;;;;;;;18.29;61.16;96080.94;5038088;28;19966;-44
2023/04/11 09:18:32;;;;;;;0.85;0.30;;;;;;;18.41;60.98;96079.31;5034311;28;20085;-44
2023/04/11 09:21:04;;;;;;;0.90;0.30;;;;;;;18.61;57.14;96084.69;5032856;28;20069;-48
2023/04/11 09:23:32;;;;;;;0.20;0.20;;;;;;;18.89;60.16;96079.19;5037069;28;20094;-44
2023/04/11 09:26:00;;;;;;;1.90;0.30;;;;;;;18.38;57.25;96090.44;5041654;28;20081;-45
2023/04/11 09:28:40;;;;;;;1.20;0.57;;;;;;;18.52;58.67;96080.59;5031750;28;20084;-47
2023/04/11 09:31:09;;;;;;;0.25;0.20;;;;;;;18.86;57.00;96091.13;5025987;28;20108;-45
2023/04/11 09:33:37;;;;;;;0.22;0.20;;;;;;;18.96;57.37;96090.72;5034551;28;20089;-47
2023/04/11 09:36:19;;;;;;;0.43;0.40;;;;;;;18.57;58.52;96100.31;5036160;28;20568;-47
2023/04/11 09:38:47;;;;;;;0.65;0.40;;;;;;;18.32;59.78;96101.91;5034167;28;20469;-45
2023/04/11 09:41:29;;;;;;;1.42;0.50;;;;;;;18.43;55.64;96091.44;5034644;28;20081;-52
2023/04/11 09:43:57;;;;;;;0.80;0.40;;;;;;;18.30;58.15;96093.28;5032179;28;20479;-48
2023/04/11 09:46:26;;;;;;;1.05;0.60;;;;;;;18.16;57.69;96103.91;5037350;28;20084;-48
2023/04/11 09:48:55;;;;;;;0.90;0.30;;;;;;;17.81;58.97;96100.50;5041874;28;20544;-46
2023/04/11 09:51:25;;;;;;;0.65;0.40;;;;;;;18.27;57.84;96113.16;5032565;28;20088;-49
2023/04/11 09:53:57;;;;;;;0.93;0.32;;;;;;;18.12;59.80;96118.69;5037210;28;20091;-44
2023/04/11 09:56:26;;;;;;;1.95;0.50;;;;;;;18.08;61.06;96124.63;5034498;28;20564;-42
2023/04/11 09:58:55;;;;;;;2.50;0.60;;;;;;;17.58;63.26;96127.41;5032077;28;20077;-45
2023/04/11 10:01:24;;;;;;;3.88;0.55;;;;;;;17.16;59.87;96136.38;5036924;28;20088;-52
2023/04/11 10:03:53;;;;;;;0.63;0.50;;;;;;;18.39;58.12;96127.59;5027088;28;20089;-44
2023/04/11 10:06:32;;;;;;;0.95;0.60;;;;;;;19.12;55.50;96130.38;5030553;28;20085;-41
2023/04/11 10:09:06;;;;;;;0.90;0.40;;;;;;;19.60;55.22;96122.06;5028272;28;20084;-47
2023/04/11 10:11:35;;;;;;;0.40;0.38;;;;;;;19.48;51.91;96121.09;5034986;28;20081;-44
2023/04/11 10:14:04;;;;;;;1.45;0.22;;;;;;;19.19;54.17;96130.38;5029272;28;20095;-47
2023/04/11 10:16:33;;;;;;;1.73;0.43;;;;;;;17.68;56.18;96137.72;5037169;28;20095;-49
2023/04/11 10:19:24;;;;;;;0.52;0.40;;;;;;;17.81;57.42;96137.03;5037218;28;20076;-46
2023/04/11 10:21:53;;;;;;;1.23;0.50;;;;;;;17.55;56.39;96165.16;5031636;28;20080;-46
2023/04/11 10:24:22;;;;;;;1.80;0.53;;;;;;;17.92;57.31;96158.63;5034569;28;20081;-48
2023/04/11 10:26:51;;;;;;;3.10;0.80;;;;;;;17.24;59.82;96166.38;5033330;28;20073;-44
2023/04/11 10:29:55;;;;;;;1.10;0.45;;;;;;;18.41;56.29;96154.91;5029666;28;20092;-44
2023/04/11 10:32:31;;;;;;;1.75;0.50;;;;;;;17.48;59.13;96153.59;5029203;28;20127;-42
2023/04/11 10:35:30;;;;;;;1.02;0.40;;;;;;;18.66;55.03;96163.19;5036220;28;20129;-45
2023/04/11 10:38:00;;;;;;;2.03;0.75;;;;;;;17.82;54.96;96157.34;5032560;28;20077;-44
2023/04/11 10:40:28;;;;;;;1.33;0.45;;;;;;;17.84;54.27;96148.13;5035559;28;20081;-45
2023/04/11 10:42:57;;;;;;;3.03;0.50;;;;;;;18.24;54.56;96138.44;5040592;28;20088;-44
2023/04/11 10:45:26;;;;;;;1.35;0.68;;;;;;;17.92;56.31;96141.78;5033035;28;20081;-45
2023/04/11 10:48:02;;;;;;;0.43;0.32;;;;;;;18.60;53.52;96145.28;5041768;28;20081;-44
2023/04/11 10:50:36;;;;;;;2.40;0.65;;;;;;;18.64;56.47;96141.19;5039768;28;20175;-46
2023/04/11 10:53:06;;;;;;;2.83;0.30;;;;;;;18.65;54.82;96140.19;5028142;28;20081;-45
2023/04/11 10:55:48;;;;;;;1.02;0.30;;;;;;;19.23;54.08;96147.63;5025508;28;20529;-46
2023/04/11 10:58:18;;;;;;;0.80;0.40;;;;;;;19.29;57.38;96160.19;5028530;28;20100;-49
2023/04/11 11:01:25;;;;;;;1.38;0.60;;;;;;;19.20;50.33;96150.72;5034782;28;20489;-48
2023/04/11 11:04:10;;;;;;;1.40;0.70;;;;;;;19.63;51.27;96156.47;5033565;28;20088;-43
2023/04/11 11:06:38;;;;;;;2.53;0.60;;;;;;;20.22;50.86;96143.94;5030165;28;20080;-50
2023/04/11 11:09:23;;;;;;;2.63;0.88;;;;;;;19.68;50.29;96148.66;5038398;28;20101;-46
2023/04/11 11:12:08;;;;;;;0.87;0.47;;;;;;;19.33;48.71;96144.53;5034873;28;20089;-46
2023/04/11 11:14:36;;;;;;;2.03;0.50;;;;;;;20.01;47.97;96141.53;5033924;28;20503;-46
2023/04/11 11:17:05;;;;;;;2.28;0.52;;;;;;;20.19;47.72;96149.69;5034717;28;20061;-49
2023/04/11 11:19:34;;;;;;;0.73;0.50;;;;;;;19.56;47.96;96152.13;5043717;28;20080;-51
2023/04/11 11:22:03;;;;;;;5.75;0.63;;;;;;;19.78;46.56;96152.72;5032630;28;20061;-48
2023/04/11 11:24:33;;;;;;;2.78;0.73;;;;;;;20.02;47.04;96145.84;5031378;28;20473;-48
2023/04/11 11:27:02;;;;;;;2.33;0.60;;;;;;;19.16;47.79;96154.84;5034113;28;20736;-48
2023/04/11 11:29:31;;;;;;;0.85;0.45;;;;;;;18.96;46.83;96162.88;5041385;28;20488;-47
2023/04/11 11:32:02;;;;;;;0.55;0.25;;;;;;;19.25;47.45;96155.47;5033800;28;20448;-46
2023/04/11 11:34:44;;;;;;;0.75;0.45;;;;;;;19.51;47.12;96162.63;5034702;28;20537;-42
2023/04/11 11:37:47;;;;;;;1.98;0.90;;;;;;;18.60;48.16;96155.16;5038546;28;20059;-47
2023/04/11 11:40:20;;;;;;;5.10;0.40;;;;;;;18.91;47.72;96166.13;5036109;28;20087;-49
2023/04/11 11:42:50;;;;;;;1.52;0.40;;;;;;;19.26;47.59;96170.47;5037417;28;20041;-46
2023/04/11 11:45:20;;;;;;;1.50;0.57;;;;;;;18.74;46.12;96165.69;5037085;28;20087;-42
2023/04/11 11:47:49;;;;;;;1.50;0.65;;;;;;;18.97;45.27;96175.19;5039437;28;20499;-46